< < Back
Terminal Aerodrome Forecast


Current Version              Previous Versions:   1  2  3  4  5  6  7  8  9  

Terminal Aerodrome Forecast

975
FTUS44 KMOB 011800 AAA
TAFMOB
TAF AMD
KMOB 011808Z 0118/0218 VRB03KT P6SM BKN040
     FM020600 12003KT 5SM BR BKN015=



Latest METAR

583
SAUS80 KWBC 012200 RRG
MTRMOB
METAR KMOB 012156Z 17007KT 10SM FEW038 BKN150 BKN200 27/22 A2994 RMK AO2
SLP134 T02670222


USA.gov is the U.S. government's official web portal to all federal, state and local government web resources and services.